sensor_id;sensor_type;location;lat;lon;timestamp;temperature;humidity
30304;DHT22;17112;48.636;10.152;2023-12-20T00:00:39;6.60;71.00
30304;DHT22;17112;48.636;10.152;2023-12-20T00:03:05;6.60;71.10
30304;DHT22;17112;48.636;10.152;2023-12-20T00:05:31;6.60;71.30
30304;DHT22;17112;48.636;10.152;2023-12-20T00:08:00;6.60;71.30
30304;DHT22;17112;48.636;10.152;2023-12-20T00:10:26;6.60;71.30
30304;DHT22;17112;48.636;10.152;2023-12-20T00:12:52;6.60;71.50
30304;DHT22;17112;48.636;10.152;2023-12-20T00:15:17;6.60;71.60
30304;DHT22;17112;48.636;10.152;2023-12-20T00:17:43;6.60;71.70
30304;DHT22;17112;48.636;10.152;2023-12-20T00:20:09;6.60;71.70
30304;DHT22;17112;48.636;10.152;2023-12-20T00:22:35;6.60;71.60
30304;DHT22;17112;48.636;10.152;2023-12-20T00:25:01;6.70;72.00
30304;DHT22;17112;48.636;10.152;2023-12-20T00:27:26;6.70;72.00
30304;DHT22;17112;48.636;10.152;2023-12-20T00:29:52;6.70;72.00
30304;DHT22;17112;48.636;10.152;2023-12-20T00:32:18;6.70;72.00
30304;DHT22;17112;48.636;10.152;2023-12-20T00:34:43;6.70;72.00
30304;DHT22;17112;48.636;10.152;2023-12-20T00:37:09;6.70;72.00
30304;DHT22;17112;48.636;10.152;2023-12-20T00:39:35;6.70;72.00
30304;DHT22;17112;48.636;10.152;2023-12-20T00:42:01;6.70;72.00
30304;DHT22;17112;48.636;10.152;2023-12-20T00:44:26;6.70;72.70
30304;DHT22;17112;48.636;10.152;2023-12-20T00:46:52;6.70;71.90
30304;DHT22;17112;48.636;10.152;2023-12-20T00:49:18;6.70;72.00
30304;DHT22;17112;48.636;10.152;2023-12-20T00:51:43;6.80;72.10
30304;DHT22;17112;48.636;10.152;2023-12-20T00:54:09;6.80;71.90
30304;DHT22;17112;48.636;10.152;2023-12-20T00:56:35;6.80;71.90
30304;DHT22;17112;48.636;10.152;2023-12-20T00:59:01;6.80;72.00
30304;DHT22;17112;48.636;10.152;2023-12-20T01:01:26;6.80;71.90
30304;DHT22;17112;48.636;10.152;2023-12-20T01:03:52;6.90;71.90
30304;DHT22;17112;48.636;10.152;2023-12-20T01:06:18;6.90;71.90
30304;DHT22;17112;48.636;10.152;2023-12-20T01:08:44;6.90;71.90
30304;DHT22;17112;48.636;10.152;2023-12-20T01:11:10;6.90;72.00
30304;DHT22;17112;48.636;10.152;2023-12-20T01:13:36;6.90;71.90
30304;DHT22;17112;48.636;10.152;2023-12-20T01:16:01;6.90;72.10
30304;DHT22;17112;48.636;10.152;2023-12-20T01:18:28;6.90;72.10
30304;DHT22;17112;48.636;10.152;2023-12-20T01:20:53;7.00;72.20
30304;DHT22;17112;48.636;10.152;2023-12-20T01:23:19;7.00;72.30
30304;DHT22;17112;48.636;10.152;2023-12-20T01:25:45;7.00;72.20
30304;DHT22;17112;48.636;10.152;2023-12-20T01:28:10;7.00;72.20
30304;DHT22;17112;48.636;10.152;2023-12-20T01:30:37;7.10;72.30
30304;DHT22;17112;48.636;10.152;2023-12-20T01:33:03;7.10;72.30
30304;DHT22;17112;48.636;10.152;2023-12-20T01:35:28;7.10;72.30
30304;DHT22;17112;48.636;10.152;2023-12-20T01:37:54;7.10;72.40
30304;DHT22;17112;48.636;10.152;2023-12-20T01:40:22;7.10;72.50
30304;DHT22;17112;48.636;10.152;2023-12-20T01:42:58;7.10;72.40
30304;DHT22;17112;48.636;10.152;2023-12-20T01:45:24;7.20;72.70
30304;DHT22;17112;48.636;10.152;2023-12-20T01:47:50;7.20;72.50
30304;DHT22;17112;48.636;10.152;2023-12-20T01:50:15;7.20;72.60
30304;DHT22;17112;48.636;10.152;2023-12-20T01:52:42;7.20;72.50
30304;DHT22;17112;48.636;10.152;2023-12-20T01:55:08;7.20;72.60
30304;DHT22;17112;48.636;10.152;2023-12-20T01:57:40;7.20;72.70
30304;DHT22;17112;48.636;10.152;2023-12-20T02:00:07;7.20;72.80
30304;DHT22;17112;48.636;10.152;2023-12-20T02:02:36;7.30;72.90
30304;DHT22;17112;48.636;10.152;2023-12-20T02:05:03;7.30;73.00
30304;DHT22;17112;48.636;10.152;2023-12-20T02:07:31;7.30;73.20
30304;DHT22;17112;48.636;10.152;2023-12-20T02:09:57;7.30;73.30
30304;DHT22;17112;48.636;10.152;2023-12-20T02:12:23;7.30;73.30
30304;DHT22;17112;48.636;10.152;2023-12-20T02:14:49;7.30;73.40
30304;DHT22;17112;48.636;10.152;2023-12-20T02:17:15;7.30;73.40
30304;DHT22;17112;48.636;10.152;2023-12-20T02:19:41;7.30;73.60
30304;DHT22;17112;48.636;10.152;2023-12-20T02:22:13;7.30;73.60
30304;DHT22;17112;48.636;10.152;2023-12-20T02:24:39;7.30;73.90
30304;DHT22;17112;48.636;10.152;2023-12-20T02:27:06;7.50;73.80
30304;DHT22;17112;48.636;10.152;2023-12-20T02:29:36;7.30;73.80
30304;DHT22;17112;48.636;10.152;2023-12-20T02:32:01;7.30;74.00
30304;DHT22;17112;48.636;10.152;2023-12-20T02:34:28;7.30;74.00
30304;DHT22;17112;48.636;10.152;2023-12-20T02:36:54;7.30;74.00
30304;DHT22;17112;48.636;10.152;2023-12-20T02:39:20;7.30;74.10
30304;DHT22;17112;48.636;10.152;2023-12-20T02:41:46;7.40;74.20
30304;DHT22;17112;48.636;10.152;2023-12-20T02:44:12;7.40;74.30
30304;DHT22;17112;48.636;10.152;2023-12-20T02:46:38;7.30;74.20
30304;DHT22;17112;48.636;10.152;2023-12-20T02:49:03;7.30;74.30
30304;DHT22;17112;48.636;10.152;2023-12-20T02:51:29;7.40;74.30
30304;DHT22;17112;48.636;10.152;2023-12-20T02:53:55;7.40;74.40
30304;DHT22;17112;48.636;10.152;2023-12-20T02:56:20;7.40;74.50
30304;DHT22;17112;48.636;10.152;2023-12-20T02:58:46;7.30;74.40
30304;DHT22;17112;48.636;10.152;2023-12-20T03:01:12;7.30;74.40
30304;DHT22;17112;48.636;10.152;2023-12-20T03:03:37;7.40;74.50
30304;DHT22;17112;48.636;10.152;2023-12-20T03:06:03;7.40;74.40
30304;DHT22;17112;48.636;10.152;2023-12-20T03:08:29;7.40;74.40
30304;DHT22;17112;48.636;10.152;2023-12-20T03:10:54;7.30;74.50
30304;DHT22;17112;48.636;10.152;2023-12-20T03:13:20;7.40;74.50
30304;DHT22;17112;48.636;10.152;2023-12-20T03:15:46;7.40;74.90
30304;DHT22;17112;48.636;10.152;2023-12-20T03:18:11;7.40;75.00
30304;DHT22;17112;48.636;10.152;2023-12-20T03:20:37;7.40;74.80
30304;DHT22;17112;48.636;10.152;2023-12-20T03:23:03;7.50;74.90
30304;DHT22;17112;48.636;10.152;2023-12-20T03:25:29;7.50;74.40
30304;DHT22;17112;48.636;10.152;2023-12-20T03:27:55;7.50;74.40
30304;DHT22;17112;48.636;10.152;2023-12-20T03:30:20;7.50;74.50
30304;DHT22;17112;48.636;10.152;2023-12-20T03:32:46;7.60;74.30
30304;DHT22;17112;48.636;10.152;2023-12-20T03:35:12;7.60;75.30
30304;DHT22;17112;48.636;10.152;2023-12-20T03:37:38;7.60;74.50
30304;DHT22;17112;48.636;10.152;2023-12-20T03:40:04;7.60;74.60
30304;DHT22;17112;48.636;10.152;2023-12-20T03:42:29;7.60;74.70
30304;DHT22;17112;48.636;10.152;2023-12-20T03:45:01;7.60;74.60
30304;DHT22;17112;48.636;10.152;2023-12-20T03:47:27;7.90;74.70
30304;DHT22;17112;48.636;10.152;2023-12-20T03:49:53;7.60;74.70
30304;DHT22;17112;48.636;10.152;2023-12-20T03:52:19;7.60;74.70
30304;DHT22;17112;48.636;10.152;2023-12-20T03:54:45;7.70;74.80
30304;DHT22;17112;48.636;10.152;2023-12-20T03:57:10;7.70;74.90
30304;DHT22;17112;48.636;10.152;2023-12-20T03:59:36;7.60;74.90
30304;DHT22;17112;48.636;10.152;2023-12-20T04:02:03;7.70;74.90
30304;DHT22;17112;48.636;10.152;2023-12-20T04:04:29;7.70;75.00
30304;DHT22;17112;48.636;10.152;2023-12-20T04:06:55;7.70;75.00
30304;DHT22;17112;48.636;10.152;2023-12-20T04:09:21;7.70;75.00
30304;DHT22;17112;48.636;10.152;2023-12-20T04:11:46;7.70;75.00
30304;DHT22;17112;48.636;10.152;2023-12-20T04:14:12;7.70;75.10
30304;DHT22;17112;48.636;10.152;2023-12-20T04:16:38;7.70;75.00
30304;DHT22;17112;48.636;10.152;2023-12-20T04:19:04;7.70;75.00
30304;DHT22;17112;48.636;10.152;2023-12-20T04:21:30;7.80;75.10
30304;DHT22;17112;48.636;10.152;2023-12-20T04:23:56;7.80;74.90
30304;DHT22;17112;48.636;10.152;2023-12-20T04:26:23;7.80;74.90
30304;DHT22;17112;48.636;10.152;2023-12-20T04:28:48;7.80;75.10
30304;DHT22;17112;48.636;10.152;2023-12-20T04:31:14;7.70;75.40
30304;DHT22;17112;48.636;10.152;2023-12-20T04:33:40;7.70;75.10
30304;DHT22;17112;48.636;10.152;2023-12-20T04:36:06;7.70;75.00
30304;DHT22;17112;48.636;10.152;2023-12-20T04:38:31;7.70;74.90
30304;DHT22;17112;48.636;10.152;2023-12-20T04:40:57;7.80;75.10
30304;DHT22;17112;48.636;10.152;2023-12-20T04:43:23;7.70;74.90
30304;DHT22;17112;48.636;10.152;2023-12-20T04:45:49;7.70;74.90
30304;DHT22;17112;48.636;10.152;2023-12-20T04:48:16;7.80;75.30
30304;DHT22;17112;48.636;10.152;2023-12-20T04:50:42;7.80;75.20
30304;DHT22;17112;48.636;10.152;2023-12-20T04:53:08;7.80;74.90
30304;DHT22;17112;48.636;10.152;2023-12-20T04:55:34;7.80;75.00
30304;DHT22;17112;48.636;10.152;2023-12-20T04:57:59;7.80;75.10
30304;DHT22;17112;48.636;10.152;2023-12-20T05:00:25;7.80;75.10
30304;DHT22;17112;48.636;10.152;2023-12-20T05:02:51;7.80;75.00
30304;DHT22;17112;48.636;10.152;2023-12-20T05:05:16;7.80;75.10
30304;DHT22;17112;48.636;10.152;2023-12-20T05:07:43;7.80;75.00
30304;DHT22;17112;48.636;10.152;2023-12-20T05:10:09;7.80;74.90
30304;DHT22;17112;48.636;10.152;2023-12-20T05:12:35;7.80;75.10
30304;DHT22;17112;48.636;10.152;2023-12-20T05:15:01;7.80;75.00
30304;DHT22;17112;48.636;10.152;2023-12-20T05:17:26;7.80;75.10
30304;DHT22;17112;48.636;10.152;2023-12-20T05:19:52;7.80;75.20
30304;DHT22;17112;48.636;10.152;2023-12-20T05:22:19;7.80;74.90
30304;DHT22;17112;48.636;10.152;2023-12-20T05:24:45;7.80;75.10
30304;DHT22;17112;48.636;10.152;2023-12-20T05:27:11;7.80;74.90
30304;DHT22;17112;48.636;10.152;2023-12-20T05:29:37;7.80;74.90
30304;DHT22;17112;48.636;10.152;2023-12-20T05:32:03;7.80;74.80
30304;DHT22;17112;48.636;10.152;2023-12-20T05:34:30;7.80;74.70
30304;DHT22;17112;48.636;10.152;2023-12-20T05:36:57;7.80;74.80
30304;DHT22;17112;48.636;10.152;2023-12-20T05:39:22;7.80;74.90
30304;DHT22;17112;48.636;10.152;2023-12-20T05:41:48;7.80;75.00
30304;DHT22;17112;48.636;10.152;2023-12-20T05:44:14;7.80;74.90
30304;DHT22;17112;48.636;10.152;2023-12-20T05:46:40;7.70;74.70
30304;DHT22;17112;48.636;10.152;2023-12-20T05:49:06;7.70;74.70
30304;DHT22;17112;48.636;10.152;2023-12-20T05:51:32;7.70;74.70
30304;DHT22;17112;48.636;10.152;2023-12-20T05:53:58;7.70;74.90
30304;DHT22;17112;48.636;10.152;2023-12-20T05:56:24;7.70;75.10
30304;DHT22;17112;48.636;10.152;2023-12-20T05:58:50;7.70;75.30
30304;DHT22;17112;48.636;10.152;2023-12-20T06:01:16;7.70;75.10
30304;DHT22;17112;48.636;10.152;2023-12-20T06:03:44;7.60;75.10
30304;DHT22;17112;48.636;10.152;2023-12-20T06:06:11;7.70;75.00
30304;DHT22;17112;48.636;10.152;2023-12-20T06:08:38;7.70;75.20
30304;DHT22;17112;48.636;10.152;2023-12-20T06:11:04;7.60;75.20
30304;DHT22;17112;48.636;10.152;2023-12-20T06:13:31;7.60;75.20
30304;DHT22;17112;48.636;10.152;2023-12-20T06:15:57;7.60;75.30
30304;DHT22;17112;48.636;10.152;2023-12-20T06:18:23;7.60;75.40
30304;DHT22;17112;48.636;10.152;2023-12-20T06:20:48;7.60;75.50
30304;DHT22;17112;48.636;10.152;2023-12-20T06:23:14;7.60;76.20
30304;DHT22;17112;48.636;10.152;2023-12-20T06:25:40;7.60;75.60
30304;DHT22;17112;48.636;10.152;2023-12-20T06:28:06;7.60;75.60
30304;DHT22;17112;48.636;10.152;2023-12-20T06:30:32;7.60;75.60
30304;DHT22;17112;48.636;10.152;2023-12-20T06:32:58;7.70;75.20
30304;DHT22;17112;48.636;10.152;2023-12-20T06:35:24;7.70;75.40
30304;DHT22;17112;48.636;10.152;2023-12-20T06:37:50;7.60;75.20
30304;DHT22;17112;48.636;10.152;2023-12-20T06:40:16;7.60;75.30
30304;DHT22;17112;48.636;10.152;2023-12-20T06:42:42;7.60;75.30
30304;DHT22;17112;48.636;10.152;2023-12-20T06:45:07;7.60;75.30
30304;DHT22;17112;48.636;10.152;2023-12-20T06:47:33;7.60;75.30
30304;DHT22;17112;48.636;10.152;2023-12-20T06:50:00;7.60;75.40
30304;DHT22;17112;48.636;10.152;2023-12-20T06:52:26;7.60;75.50
30304;DHT22;17112;48.636;10.152;2023-12-20T06:54:52;7.60;75.50
30304;DHT22;17112;48.636;10.152;2023-12-20T06:57:18;7.60;75.60
30304;DHT22;17112;48.636;10.152;2023-12-20T06:59:45;7.60;75.60
30304;DHT22;17112;48.636;10.152;2023-12-20T07:02:11;7.60;75.50
30304;DHT22;17112;48.636;10.152;2023-12-20T07:04:40;7.60;75.50
30304;DHT22;17112;48.636;10.152;2023-12-20T07:07:06;7.60;75.60
30304;DHT22;17112;48.636;10.152;2023-12-20T07:09:33;7.60;75.30
30304;DHT22;17112;48.636;10.152;2023-12-20T07:11:59;7.60;75.30
30304;DHT22;17112;48.636;10.152;2023-12-20T07:14:25;7.60;75.40
30304;DHT22;17112;48.636;10.152;2023-12-20T07:16:51;7.60;75.20
30304;DHT22;17112;48.636;10.152;2023-12-20T07:19:17;7.60;75.40
30304;DHT22;17112;48.636;10.152;2023-12-20T07:21:42;7.60;75.40
30304;DHT22;17112;48.636;10.152;2023-12-20T07:24:08;7.60;75.40
30304;DHT22;17112;48.636;10.152;2023-12-20T07:26:35;7.60;75.50
30304;DHT22;17112;48.636;10.152;2023-12-20T07:29:00;7.60;75.60
30304;DHT22;17112;48.636;10.152;2023-12-20T07:31:26;7.60;75.70
30304;DHT22;17112;48.636;10.152;2023-12-20T07:33:52;7.60;75.80
30304;DHT22;17112;48.636;10.152;2023-12-20T07:36:19;7.60;76.00
30304;DHT22;17112;48.636;10.152;2023-12-20T07:38:45;7.60;75.80
30304;DHT22;17112;48.636;10.152;2023-12-20T07:41:11;7.70;75.80
30304;DHT22;17112;48.636;10.152;2023-12-20T07:43:36;7.70;75.80
30304;DHT22;17112;48.636;10.152;2023-12-20T07:46:09;7.70;75.80
30304;DHT22;17112;48.636;10.152;2023-12-20T07:48:36;7.70;75.70
30304;DHT22;17112;48.636;10.152;2023-12-20T07:51:02;7.70;75.60
30304;DHT22;17112;48.636;10.152;2023-12-20T07:53:28;7.70;75.80
30304;DHT22;17112;48.636;10.152;2023-12-20T07:55:55;7.70;76.00
30304;DHT22;17112;48.636;10.152;2023-12-20T07:58:21;7.70;75.80
30304;DHT22;17112;48.636;10.152;2023-12-20T08:00:47;7.80;75.70
30304;DHT22;17112;48.636;10.152;2023-12-20T08:03:13;7.80;75.70
30304;DHT22;17112;48.636;10.152;2023-12-20T08:05:40;7.80;75.90
30304;DHT22;17112;48.636;10.152;2023-12-20T08:08:06;7.80;75.70
30304;DHT22;17112;48.636;10.152;2023-12-20T08:10:32;7.80;75.60
30304;DHT22;17112;48.636;10.152;2023-12-20T08:12:57;7.80;75.90
30304;DHT22;17112;48.636;10.152;2023-12-20T08:15:23;7.80;75.80
30304;DHT22;17112;48.636;10.152;2023-12-20T08:17:49;7.80;75.80
30304;DHT22;17112;48.636;10.152;2023-12-20T08:20:18;7.80;75.90
30304;DHT22;17112;48.636;10.152;2023-12-20T08:22:46;7.90;76.00
30304;DHT22;17112;48.636;10.152;2023-12-20T08:25:11;7.90;75.90
30304;DHT22;17112;48.636;10.152;2023-12-20T08:27:41;7.90;75.70
30304;DHT22;17112;48.636;10.152;2023-12-20T08:30:08;7.90;75.60
30304;DHT22;17112;48.636;10.152;2023-12-20T08:32:35;7.90;75.40
30304;DHT22;17112;48.636;10.152;2023-12-20T08:35:02;7.90;75.60
30304;DHT22;17112;48.636;10.152;2023-12-20T08:37:28;8.00;75.70
30304;DHT22;17112;48.636;10.152;2023-12-20T08:39:55;8.00;75.90
30304;DHT22;17112;48.636;10.152;2023-12-20T08:42:21;8.00;76.00
30304;DHT22;17112;48.636;10.152;2023-12-20T08:44:47;8.00;75.70
30304;DHT22;17112;48.636;10.152;2023-12-20T08:47:13;8.00;75.70
30304;DHT22;17112;48.636;10.152;2023-12-20T08:49:41;8.00;75.80
30304;DHT22;17112;48.636;10.152;2023-12-20T08:52:09;8.00;75.70
30304;DHT22;17112;48.636;10.152;2023-12-20T08:54:34;8.10;75.70
30304;DHT22;17112;48.636;10.152;2023-12-20T08:57:00;8.10;75.60
30304;DHT22;17112;48.636;10.152;2023-12-20T08:59:25;8.10;75.60
30304;DHT22;17112;48.636;10.152;2023-12-20T09:01:52;8.10;75.60
30304;DHT22;17112;48.636;10.152;2023-12-20T09:04:20;8.10;75.70
30304;DHT22;17112;48.636;10.152;2023-12-20T09:06:46;8.10;75.60
30304;DHT22;17112;48.636;10.152;2023-12-20T09:09:11;8.20;75.50
30304;DHT22;17112;48.636;10.152;2023-12-20T09:11:39;8.10;75.60
30304;DHT22;17112;48.636;10.152;2023-12-20T09:14:05;8.20;75.40
30304;DHT22;17112;48.636;10.152;2023-12-20T09:16:31;8.20;75.20
30304;DHT22;17112;48.636;10.152;2023-12-20T09:18:57;8.10;75.20
30304;DHT22;17112;48.636;10.152;2023-12-20T09:21:22;8.10;75.00
30304;DHT22;17112;48.636;10.152;2023-12-20T09:23:48;8.10;74.80
30304;DHT22;17112;48.636;10.152;2023-12-20T09:26:14;8.10;74.70
30304;DHT22;17112;48.636;10.152;2023-12-20T09:28:39;8.10;74.40
30304;DHT22;17112;48.636;10.152;2023-12-20T09:31:06;8.10;74.40
30304;DHT22;17112;48.636;10.152;2023-12-20T09:33:32;8.00;74.30
30304;DHT22;17112;48.636;10.152;2023-12-20T09:35:58;8.00;74.40
30304;DHT22;17112;48.636;10.152;2023-12-20T09:38:24;8.00;74.50
30304;DHT22;17112;48.636;10.152;2023-12-20T09:40:50;8.00;74.60
30304;DHT22;17112;48.636;10.152;2023-12-20T09:43:19;8.00;74.70
30304;DHT22;17112;48.636;10.152;2023-12-20T09:45:47;8.00;74.50
30304;DHT22;17112;48.636;10.152;2023-12-20T09:48:13;8.10;74.40
30304;DHT22;17112;48.636;10.152;2023-12-20T09:50:43;8.10;74.30
30304;DHT22;17112;48.636;10.152;2023-12-20T09:53:14;8.20;74.30
30304;DHT22;17112;48.636;10.152;2023-12-20T09:55:41;8.20;74.30
30304;DHT22;17112;48.636;10.152;2023-12-20T09:58:07;8.20;74.50
30304;DHT22;17112;48.636;10.152;2023-12-20T10:00:34;8.30;74.60
30304;DHT22;17112;48.636;10.152;2023-12-20T10:03:01;8.30;74.20
30304;DHT22;17112;48.636;10.152;2023-12-20T10:05:33;8.40;74.10
30304;DHT22;17112;48.636;10.152;2023-12-20T10:08:00;8.40;73.50
30304;DHT22;17112;48.636;10.152;2023-12-20T10:10:27;8.50;73.90
30304;DHT22;17112;48.636;10.152;2023-12-20T10:13:06;8.50;73.80
30304;DHT22;17112;48.636;10.152;2023-12-20T10:15:36;8.50;73.30
30304;DHT22;17112;48.636;10.152;2023-12-20T10:18:03;8.60;73.20
30304;DHT22;17112;48.636;10.152;2023-12-20T10:20:30;8.60;73.00
30304;DHT22;17112;48.636;10.152;2023-12-20T10:22:59;8.70;72.40
30304;DHT22;17112;48.636;10.152;2023-12-20T10:25:26;8.70;72.10
30304;DHT22;17112;48.636;10.152;2023-12-20T10:28:10;8.70;71.90
30304;DHT22;17112;48.636;10.152;2023-12-20T10:30:36;8.70;71.40
30304;DHT22;17112;48.636;10.152;2023-12-20T10:33:02;8.70;71.30
30304;DHT22;17112;48.636;10.152;2023-12-20T10:35:28;8.60;71.30
30304;DHT22;17112;48.636;10.152;2023-12-20T10:37:56;8.60;70.80
30304;DHT22;17112;48.636;10.152;2023-12-20T10:40:26;8.60;70.60
30304;DHT22;17112;48.636;10.152;2023-12-20T10:42:53;8.60;71.10
30304;DHT22;17112;48.636;10.152;2023-12-20T10:45:25;8.60;70.90
30304;DHT22;17112;48.636;10.152;2023-12-20T10:47:51;8.60;70.90
30304;DHT22;17112;48.636;10.152;2023-12-20T10:50:19;8.60;70.70
30304;DHT22;17112;48.636;10.152;2023-12-20T10:52:46;8.60;69.80
30304;DHT22;17112;48.636;10.152;2023-12-20T10:55:12;8.60;70.00
30304;DHT22;17112;48.636;10.152;2023-12-20T10:57:38;8.60;70.30
30304;DHT22;17112;48.636;10.152;2023-12-20T11:00:06;8.70;70.50
30304;DHT22;17112;48.636;10.152;2023-12-20T11:02:39;8.70;70.90
30304;DHT22;17112;48.636;10.152;2023-12-20T11:05:25;8.80;70.60
30304;DHT22;17112;48.636;10.152;2023-12-20T11:07:58;8.90;70.50
30304;DHT22;17112;48.636;10.152;2023-12-20T11:10:56;9.00;70.20
30304;DHT22;17112;48.636;10.152;2023-12-20T11:13:31;9.00;68.90
30304;DHT22;17112;48.636;10.152;2023-12-20T11:15:58;9.10;69.60
30304;DHT22;17112;48.636;10.152;2023-12-20T11:18:30;9.00;69.50
30304;DHT22;17112;48.636;10.152;2023-12-20T11:21:03;9.00;68.90
30304;DHT22;17112;48.636;10.152;2023-12-20T11:23:30;9.00;69.20
30304;DHT22;17112;48.636;10.152;2023-12-20T11:25:57;9.00;68.50
30304;DHT22;17112;48.636;10.152;2023-12-20T11:28:26;8.90;68.60
30304;DHT22;17112;48.636;10.152;2023-12-20T11:30:53;8.90;67.90
30304;DHT22;17112;48.636;10.152;2023-12-20T11:33:36;8.80;67.90
30304;DHT22;17112;48.636;10.152;2023-12-20T11:36:02;8.70;67.90
30304;DHT22;17112;48.636;10.152;2023-12-20T11:38:36;8.70;68.00
30304;DHT22;17112;48.636;10.152;2023-12-20T11:41:06;8.60;68.00
30304;DHT22;17112;48.636;10.152;2023-12-20T11:43:38;8.60;68.30
30304;DHT22;17112;48.636;10.152;2023-12-20T11:46:09;8.50;68.30
30304;DHT22;17112;48.636;10.152;2023-12-20T11:48:37;8.50;68.10
30304;DHT22;17112;48.636;10.152;2023-12-20T11:51:08;8.50;69.10
30304;DHT22;17112;48.636;10.152;2023-12-20T11:53:34;8.50;68.70
30304;DHT22;17112;48.636;10.152;2023-12-20T11:56:00;8.40;68.40
30304;DHT22;17112;48.636;10.152;2023-12-20T11:58:28;8.40;68.60
30304;DHT22;17112;48.636;10.152;2023-12-20T12:00:55;8.40;68.40
30304;DHT22;17112;48.636;10.152;2023-12-20T12:03:21;8.50;68.70
30304;DHT22;17112;48.636;10.152;2023-12-20T12:05:50;8.40;68.70
30304;DHT22;17112;48.636;10.152;2023-12-20T12:08:16;8.50;68.20
30304;DHT22;17112;48.636;10.152;2023-12-20T12:10:43;8.50;68.20
30304;DHT22;17112;48.636;10.152;2023-12-20T12:13:09;8.60;67.90
30304;DHT22;17112;48.636;10.152;2023-12-20T12:15:36;8.60;67.80
30304;DHT22;17112;48.636;10.152;2023-12-20T12:18:02;8.60;67.70
30304;DHT22;17112;48.636;10.152;2023-12-20T12:20:27;8.60;67.30
30304;DHT22;17112;48.636;10.152;2023-12-20T12:23:02;8.50;67.10
30304;DHT22;17112;48.636;10.152;2023-12-20T12:25:34;8.50;67.20
30304;DHT22;17112;48.636;10.152;2023-12-20T12:28:00;8.50;67.30
30304;DHT22;17112;48.636;10.152;2023-12-20T12:30:26;8.40;67.40
30304;DHT22;17112;48.636;10.152;2023-12-20T12:32:53;8.40;67.10
30304;DHT22;17112;48.636;10.152;2023-12-20T12:35:19;8.40;67.20
30304;DHT22;17112;48.636;10.152;2023-12-20T12:37:45;8.30;67.30
30304;DHT22;17112;48.636;10.152;2023-12-20T12:40:15;8.30;67.30
30304;DHT22;17112;48.636;10.152;2023-12-20T12:42:43;8.20;67.40
30304;DHT22;17112;48.636;10.152;2023-12-20T12:45:09;8.20;66.50
30304;DHT22;17112;48.636;10.152;2023-12-20T12:47:36;8.20;67.10
30304;DHT22;17112;48.636;10.152;2023-12-20T12:50:02;8.10;67.10
30304;DHT22;17112;48.636;10.152;2023-12-20T12:52:28;8.10;66.30
30304;DHT22;17112;48.636;10.152;2023-12-20T12:54:53;8.10;67.10
30304;DHT22;17112;48.636;10.152;2023-12-20T12:57:19;8.10;67.00
30304;DHT22;17112;48.636;10.152;2023-12-20T12:59:46;8.10;67.30
30304;DHT22;17112;48.636;10.152;2023-12-20T13:02:12;8.10;67.10
30304;DHT22;17112;48.636;10.152;2023-12-20T13:04:39;8.10;67.40
30304;DHT22;17112;48.636;10.152;2023-12-20T13:07:05;8.10;67.40
30304;DHT22;17112;48.636;10.152;2023-12-20T13:09:31;8.10;67.40
30304;DHT22;17112;48.636;10.152;2023-12-20T13:11:57;8.00;66.90
30304;DHT22;17112;48.636;10.152;2023-12-20T13:14:22;8.00;67.00
30304;DHT22;17112;48.636;10.152;2023-12-20T13:16:48;8.00;67.20
30304;DHT22;17112;48.636;10.152;2023-12-20T13:19:14;8.00;67.10
30304;DHT22;17112;48.636;10.152;2023-12-20T13:21:40;7.90;66.80
30304;DHT22;17112;48.636;10.152;2023-12-20T13:24:05;7.90;66.70
30304;DHT22;17112;48.636;10.152;2023-12-20T13:26:32;7.90;66.30
30304;DHT22;17112;48.636;10.152;2023-12-20T13:28:58;7.90;66.70
30304;DHT22;17112;48.636;10.152;2023-12-20T13:31:24;7.90;66.80
30304;DHT22;17112;48.636;10.152;2023-12-20T13:33:50;7.90;67.10
30304;DHT22;17112;48.636;10.152;2023-12-20T13:36:17;7.90;67.30
30304;DHT22;17112;48.636;10.152;2023-12-20T13:38:43;7.90;67.30
30304;DHT22;17112;48.636;10.152;2023-12-20T13:41:09;7.90;67.10
30304;DHT22;17112;48.636;10.152;2023-12-20T13:43:34;7.90;67.10
30304;DHT22;17112;48.636;10.152;2023-12-20T13:46:01;8.00;67.30
30304;DHT22;17112;48.636;10.152;2023-12-20T13:48:26;8.00;67.20
30304;DHT22;17112;48.636;10.152;2023-12-20T13:50:52;8.00;66.90
30304;DHT22;17112;48.636;10.152;2023-12-20T13:53:18;7.90;66.80
30304;DHT22;17112;48.636;10.152;2023-12-20T13:55:44;7.90;66.90
30304;DHT22;17112;48.636;10.152;2023-12-20T13:58:10;7.90;66.70
30304;DHT22;17112;48.636;10.152;2023-12-20T14:00:36;7.90;66.90
30304;DHT22;17112;48.636;10.152;2023-12-20T14:03:05;7.90;66.80
30304;DHT22;17112;48.636;10.152;2023-12-20T14:05:31;7.90;66.70
30304;DHT22;17112;48.636;10.152;2023-12-20T14:07:57;7.90;66.50
30304;DHT22;17112;48.636;10.152;2023-12-20T14:10:23;7.90;66.60
30304;DHT22;17112;48.636;10.152;2023-12-20T14:12:52;7.90;66.30
30304;DHT22;17112;48.636;10.152;2023-12-20T14:15:17;7.90;66.50
30304;DHT22;17112;48.636;10.152;2023-12-20T14:17:43;7.80;66.40
30304;DHT22;17112;48.636;10.152;2023-12-20T14:20:09;7.80;66.40
30304;DHT22;17112;48.636;10.152;2023-12-20T14:22:36;7.80;66.40
30304;DHT22;17112;48.636;10.152;2023-12-20T14:25:04;7.80;66.30
30304;DHT22;17112;48.636;10.152;2023-12-20T14:27:30;7.80;66.30
30304;DHT22;17112;48.636;10.152;2023-12-20T14:29:56;7.80;66.30
30304;DHT22;17112;48.636;10.152;2023-12-20T14:32:21;7.80;66.40
30304;DHT22;17112;48.636;10.152;2023-12-20T14:34:47;7.80;66.10
30304;DHT22;17112;48.636;10.152;2023-12-20T14:37:13;7.80;66.20
30304;DHT22;17112;48.636;10.152;2023-12-20T14:39:39;7.80;65.90
30304;DHT22;17112;48.636;10.152;2023-12-20T14:42:09;7.70;65.90
30304;DHT22;17112;48.636;10.152;2023-12-20T14:44:53;7.70;65.90
30304;DHT22;17112;48.636;10.152;2023-12-20T14:47:20;7.70;65.80
30304;DHT22;17112;48.636;10.152;2023-12-20T14:49:46;7.70;66.10
30304;DHT22;17112;48.636;10.152;2023-12-20T14:52:13;7.70;66.00
30304;DHT22;17112;48.636;10.152;2023-12-20T14:54:39;7.70;66.00
30304;DHT22;17112;48.636;10.152;2023-12-20T14:57:04;7.60;65.80
30304;DHT22;17112;48.636;10.152;2023-12-20T14:59:30;7.60;66.00
30304;DHT22;17112;48.636;10.152;2023-12-20T15:01:56;7.60;66.00
30304;DHT22;17112;48.636;10.152;2023-12-20T15:04:22;7.60;66.00
30304;DHT22;17112;48.636;10.152;2023-12-20T15:06:56;7.60;66.00
30304;DHT22;17112;48.636;10.152;2023-12-20T15:09:22;7.50;65.90
30304;DHT22;17112;48.636;10.152;2023-12-20T15:11:48;7.50;65.90
30304;DHT22;17112;48.636;10.152;2023-12-20T15:14:13;7.50;65.70
30304;DHT22;17112;48.636;10.152;2023-12-20T15:16:45;7.50;66.00
30304;DHT22;17112;48.636;10.152;2023-12-20T15:19:12;7.40;65.90
30304;DHT22;17112;48.636;10.152;2023-12-20T15:21:37;7.40;65.80
30304;DHT22;17112;48.636;10.152;2023-12-20T15:24:10;7.40;66.00
30304;DHT22;17112;48.636;10.152;2023-12-20T15:26:41;7.40;66.20